createdAt,value
2023-04-11T00:03:25.278Z,100213.16
2023-04-11T00:08:28.521Z,100208.91
2023-04-11T00:13:30.263Z,100202.97
2023-04-11T00:18:35.892Z,100180.31
2023-04-11T00:23:39.539Z,100178.66
2023-04-11T00:28:41.292Z,100157.81
2023-04-11T00:33:43.153Z,100153.56
2023-04-11T00:38:46.339Z,100139.66
2023-04-11T00:43:49.588Z,100137.91
2023-04-11T00:48:51.429Z,100114.41
2023-04-11T00:53:54.600Z,100027.25
2023-04-11T00:58:56.522Z,99999.59
2023-04-11T01:04:01.074Z,99955.25
2023-04-11T01:09:06.213Z,100014.84
2023-04-11T01:14:07.924Z,100081.97
2023-04-11T01:19:09.634Z,100110.75
2023-04-11T01:24:12.778Z,100124.78
2023-04-11T01:29:15.005Z,100125.72
2023-04-11T01:34:17.752Z,100121.38
2023-04-11T01:39:20.876Z,100131.00
2023-04-11T01:44:22.696Z,100128.38
2023-04-11T01:49:24.733Z,100120.56
2023-04-11T01:54:28.565Z,100107.47
2023-04-11T01:59:30.340Z,100111.84
2023-04-11T02:04:32.178Z,100110.13
2023-04-11T02:09:36.266Z,100111.88
2023-04-11T02:14:41.980Z,100094.47
2023-04-11T02:19:45.223Z,100084.00
2023-04-11T02:24:48.379Z,100075.28
2023-04-11T02:29:50.420Z,100065.69
2023-04-11T02:34:52.142Z,100063.97
2023-04-11T02:39:55.861Z,100068.34
2023-04-11T02:44:57.581Z,100060.50
2023-04-11T02:50:02.554Z,100032.69
2023-04-11T02:55:11.290Z,100010.94
2023-04-11T03:00:13.604Z,100019.59
2023-04-11T03:05:23.987Z,100022.28
2023-04-11T03:10:29.630Z,100022.28
2023-04-11T03:15:32.640Z,100024.06
2023-04-11T03:20:39.222Z,100017.13
2023-04-11T03:25:48.375Z,100024.13
2023-04-11T03:30:52.985Z,100025.03
2023-04-11T03:35:57.174Z,100027.69
2023-04-11T03:41:00.915Z,100046.91
2023-04-11T03:46:03.267Z,100028.63
2023-04-11T03:51:15.474Z,100034.72
2023-04-11T03:56:27.946Z,100040.84
2023-04-11T04:01:30.230Z,100041.69
2023-04-11T04:06:36.281Z,100045.19
2023-04-11T04:11:40.411Z,100109.75
2023-04-11T04:16:42.297Z,100109.16
2023-04-11T04:21:46.602Z,100110.09
2023-04-11T04:26:52.409Z,100091.00
2023-04-11T04:32:11.243Z,100092.75
2023-04-11T04:37:23.152Z,100104.09
2023-04-11T04:42:32.764Z,100114.50
2023-04-11T04:47:38.601Z,100092.78
2023-04-11T04:52:41.124Z,100079.75
2023-04-11T04:57:44.633Z,100088.44
2023-04-11T05:02:47.074Z,100083.22
2023-04-11T05:07:49.110Z,100091.88
2023-04-11T05:12:53.549Z,100080.59
2023-04-11T05:17:55.614Z,100084.09
2023-04-11T05:22:57.646Z,100089.28
2023-04-11T05:28:01.042Z,100098.88
2023-04-11T05:33:03.112Z,100100.59
2023-04-11T05:38:05.162Z,100091.91
2023-04-11T05:43:13.340Z,100097.97
2023-04-11T05:48:16.174Z,100107.53
2023-04-11T05:53:18.333Z,100111.88
2023-04-11T05:58:21.483Z,100113.63
2023-04-11T06:03:23.382Z,100107.56
2023-04-11T06:08:25.458Z,100118.84
2023-04-11T06:13:28.585Z,100139.69
2023-04-11T06:18:30.343Z,100114.50
2023-04-11T06:23:31.991Z,100137.06
2023-04-11T06:28:35.176Z,100123.16
2023-04-11T06:33:37.672Z,100121.44
2023-04-11T06:38:40.511Z,100135.34
2023-04-11T06:43:43.567Z,100130.13
2023-04-11T06:48:45.241Z,100124.03
2023-04-11T06:53:47.018Z,100130.09
2023-04-11T06:58:50.075Z,100141.41
2023-04-11T07:03:53.098Z,100153.59
2023-04-11T07:08:54.915Z,100156.19
2023-04-11T07:13:58.722Z,100154.41
2023-04-11T07:19:00.459Z,100163.97
2023-04-11T07:24:02.167Z,100145.75
2023-04-11T07:29:06.074Z,100151.84
2023-04-11T07:34:09.606Z,100156.19
2023-04-11T07:39:12.305Z,100164.03
2023-04-11T07:44:15.426Z,100167.50
2023-04-11T07:49:17.115Z,100168.38
2023-04-11T07:54:18.837Z,100181.41
2023-04-11T07:59:21.912Z,100184.03
2023-04-11T08:04:23.885Z,100187.47
2023-04-11T08:09:27.449Z,100197.00
2023-04-11T08:14:30.575Z,100196.16
2023-04-11T08:19:32.333Z,100213.56
2023-04-11T08:24:34.021Z,100216.16
2023-04-11T08:29:37.440Z,100223.97
2023-04-11T08:34:39.122Z,100220.50
2023-04-11T08:39:49.244Z,100215.28
2023-04-11T08:45:05.382Z,100221.38
2023-04-11T08:50:16.412Z,100218.78
2023-04-11T08:55:25.246Z,100218.78
2023-04-11T09:01:00.173Z,100210.97
2023-04-11T09:06:09.508Z,100215.34
2023-04-11T09:11:17.467Z,100216.19
2023-04-11T09:16:25.514Z,100210.00
2023-04-11T09:21:31.431Z,100208.28
2023-04-11T09:26:33.708Z,100196.94
2023-04-11T09:31:42.401Z,100208.94
2023-04-11T09:36:44.330Z,100206.13
2023-04-11T09:41:46.282Z,100201.69
2023-04-11T09:46:58.777Z,100219.19
2023-04-11T09:52:01.115Z,100209.63
2023-04-11T09:57:02.966Z,100206.94
2023-04-11T10:02:06.071Z,100210.28
2023-04-11T10:07:11.973Z,100204.94
2023-04-11T10:12:13.710Z,100216.75
2023-04-11T10:17:20.728Z,100212.03
2023-04-11T10:22:58.236Z,100215.31
2023-04-11T10:28:06.264Z,100245.47
2023-04-11T10:33:12.749Z,100249.97
2023-04-11T10:38:46.074Z,100245.97
2023-04-11T10:43:47.929Z,100247.94
2023-04-11T10:48:58.649Z,100246.34
2023-04-11T10:54:00.929Z,100255.16
2023-04-11T10:59:03.103Z,100251.69
2023-04-11T11:04:06.915Z,100259.56
2023-04-11T11:09:20.919Z,100270.03
2023-04-11T11:14:27.986Z,100252.63
2023-04-11T11:19:31.308Z,100253.44
2023-04-11T11:24:33.026Z,100250.56
2023-04-11T11:29:36.149Z,100258.09
2023-04-11T11:34:39.205Z,100264.53
2023-04-11T11:39:40.959Z,100266.84
2023-04-11T11:44:42.656Z,100272.78
2023-04-11T11:49:46.579Z,100286.88
2023-04-11T11:54:48.311Z,100326.53
2023-04-11T11:59:53.841Z,100329.00
2023-04-11T12:04:58.146Z,100328.28
2023-04-11T12:10:00.088Z,100333.44
2023-04-11T12:15:02.054Z,100335.09
2023-04-11T12:20:06.909Z,100331.53
2023-04-11T12:25:09.876Z,100326.09
2023-04-11T12:30:12.612Z,100337.97
2023-04-11T12:35:15.636Z,100323.56
2023-04-11T12:40:17.490Z,100327.56
2023-04-11T12:45:19.160Z,100336.84
2023-04-11T12:50:25.207Z,100348.38
2023-04-11T12:55:27.357Z,100353.91
2023-04-11T13:00:29.291Z,100363.69
2023-04-11T13:05:32.413Z,100376.94
2023-04-11T13:10:34.138Z,100385.25
2023-04-11T13:15:35.884Z,100393.19
2023-04-11T13:20:39.048Z,100395.66
2023-04-11T13:25:41.000Z,100411.47
2023-04-11T13:30:42.737Z,100427.28
2023-04-11T13:35:45.827Z,100418.72
2023-04-11T13:40:47.493Z,100413.56
2023-04-11T13:45:49.219Z,100405.75
2023-04-11T13:50:52.269Z,100408.38
2023-04-11T13:55:54.584Z,100408.38
2023-04-11T14:00:56.299Z,100422.28
2023-04-11T14:05:59.321Z,100419.69
2023-04-11T14:11:01.349Z,100440.59
2023-04-11T14:16:08.727Z,100441.41
2023-04-11T14:21:12.401Z,100445.69
2023-04-11T14:26:14.100Z,100443.06
2023-04-11T14:31:15.975Z,100445.59
2023-04-11T14:36:19.097Z,100466.56
2023-04-11T14:41:20.879Z,100513.81
2023-04-11T14:46:22.623Z,100516.44
2023-04-11T14:51:27.664Z,100495.19
2023-04-11T14:56:29.463Z,100510.81
2023-04-11T15:01:31.648Z,100528.22
2023-04-11T15:06:35.131Z,100519.56
2023-04-11T15:11:37.117Z,100519.72
2023-04-11T15:16:38.822Z,100527.63
2023-04-11T15:21:41.911Z,100540.63
2023-04-11T15:26:44.586Z,100545.84
2023-04-11T15:31:46.361Z,100531.94
2023-04-11T15:36:50.050Z,100538.06
2023-04-11T15:41:51.915Z,100525.06
2023-04-11T15:46:53.682Z,100519.88
2023-04-11T15:51:56.737Z,100522.47
2023-04-11T15:57:07.725Z,100530.31
2023-04-11T16:02:09.576Z,100533.81
2023-04-11T16:07:12.642Z,100529.47
2023-04-11T16:12:14.374Z,100524.25
2023-04-11T16:17:18.245Z,100528.66
2023-04-11T16:22:21.370Z,100527.75
2023-04-11T16:27:23.085Z,100526.91
2023-04-11T16:32:24.817Z,100518.22
2023-04-11T16:37:27.984Z,100524.31
2023-04-11T16:42:29.708Z,100519.06
2023-04-11T16:47:31.566Z,100515.59
2023-04-11T16:52:34.647Z,100518.22
2023-04-11T16:57:36.304Z,100521.69
2023-04-11T17:02:38.151Z,100525.16
2023-04-11T17:07:41.685Z,100533.88
2023-04-11T17:12:43.382Z,100535.63
2023-04-11T17:17:45.176Z,100539.97
2023-04-11T17:22:48.196Z,100538.22
2023-04-11T17:27:49.862Z,100545.19
2023-04-11T17:32:52.836Z,100545.19
2023-04-11T17:37:55.964Z,100550.44
2023-04-11T17:42:57.811Z,100552.16
2023-04-11T17:47:59.980Z,100548.63
2023-04-11T17:53:04.666Z,100561.59
2023-04-11T17:58:06.416Z,100570.28
2023-04-11T18:03:08.612Z,100592.84
2023-04-11T18:08:13.035Z,100585.00
2023-04-11T18:13:14.730Z,100585.78
2023-04-11T18:18:16.611Z,100594.44
2023-04-11T18:23:19.784Z,100597.84
2023-04-11T18:28:21.496Z,100596.06
2023-04-11T18:33:24.335Z,100589.94
2023-04-11T18:38:27.532Z,100589.03
2023-04-11T18:43:29.288Z,100596.72
2023-04-11T18:48:31.762Z,100587.03
2023-04-11T18:53:36.454Z,100589.59
2023-04-11T18:58:45.793Z,100588.53
2023-04-11T19:03:49.193Z,100591.91
2023-04-11T19:08:52.388Z,100588.38
2023-04-11T19:13:55.094Z,100583.09
2023-04-11T19:18:57.804Z,100589.03
2023-04-11T19:24:00.928Z,100587.16
2023-04-11T19:29:02.637Z,100594.88
2023-04-11T19:34:04.671Z,100579.97
2023-04-11T19:39:08.260Z,100580.69
2023-04-11T19:44:10.027Z,100586.63
2023-04-11T19:49:11.955Z,100587.31
2023-04-11T19:54:15.097Z,100591.47
2023-04-11T19:59:16.845Z,100597.44
2023-04-11T20:04:18.731Z,100598.16
2023-04-11T20:09:21.944Z,100590.34
2023-04-11T20:14:23.787Z,100588.31
2023-04-11T20:19:28.360Z,100590.09
2023-04-11T20:24:31.532Z,100579.72
2023-04-11T20:29:33.351Z,100581.38
2023-04-11T20:34:35.111Z,100575.31
2023-04-11T20:39:38.173Z,100570.13
2023-04-11T20:44:41.551Z,100566.53
2023-04-11T20:49:45.570Z,100557.78
2023-04-11T20:54:48.769Z,100560.41
2023-04-11T20:59:50.521Z,100559.59
2023-04-11T21:04:53.113Z,100561.25
2023-04-11T21:09:56.345Z,100561.13
2023-04-11T21:14:58.832Z,100565.50
2023-04-11T21:20:00.835Z,100563.75
2023-04-11T21:25:04.436Z,100548.94
2023-04-11T21:30:07.465Z,100552.28
2023-04-11T21:35:09.953Z,100551.28
2023-04-11T21:40:13.144Z,100549.44
2023-04-11T21:45:15.529Z,100543.31
2023-04-11T21:50:17.472Z,100548.41
2023-04-11T21:55:21.067Z,100545.69
2023-04-11T22:00:23.155Z,100546.41
2023-04-11T22:05:26.010Z,100544.47
2023-04-11T22:10:41.196Z,100541.00
2023-04-11T22:16:05.416Z,100533.13
2023-04-11T22:21:09.209Z,100527.75
2023-04-11T22:26:12.359Z,100514.69
2023-04-11T22:31:14.109Z,100518.06
2023-04-11T22:36:16.409Z,100500.78
2023-04-11T22:41:19.454Z,100502.63
2023-04-11T22:46:21.209Z,100499.16
2023-04-11T22:51:25.393Z,100491.38
2023-04-11T22:56:28.468Z,100500.00
2023-04-11T23:01:30.262Z,100484.31
2023-04-11T23:06:32.106Z,100485.94
2023-04-11T23:11:35.166Z,100472.88
2023-04-11T23:16:36.944Z,100461.53
2023-04-11T23:21:38.732Z,100459.72
2023-04-11T23:26:42.266Z,100452.63
2023-04-11T23:31:44.199Z,100455.06
2023-04-11T23:36:45.946Z,100459.25
2023-04-11T23:41:49.101Z,100448.72
2023-04-11T23:46:50.922Z,100446.84
2023-04-11T23:51:52.666Z,100439.09
2023-04-11T23:56:57.085Z,100430.28
